createdAt,value
2023-02-22T00:01:50.465Z,74.17
2023-02-22T00:04:07.106Z,74.40
2023-02-22T00:06:25.268Z,74.23
2023-02-22T00:08:37.541Z,74.40
2023-02-22T00:10:53.101Z,74.61
2023-02-22T00:13:07.696Z,74.42
2023-02-22T00:15:22.832Z,74.41
2023-02-22T00:17:35.433Z,74.60
2023-02-22T00:19:49.067Z,74.73
2023-02-22T00:22:00.754Z,74.63
2023-02-22T00:24:23.513Z,74.65
2023-02-22T00:26:35.295Z,74.73
2023-02-22T00:28:54.693Z,74.71
2023-02-22T00:31:07.983Z,74.79
2023-02-22T00:33:20.316Z,74.82
2023-02-22T00:35:32.601Z,74.57
2023-02-22T00:37:48.620Z,74.64
2023-02-22T00:40:00.777Z,74.85
2023-02-22T00:42:12.874Z,74.66
2023-02-22T00:44:24.765Z,74.75
2023-02-22T00:46:36.554Z,74.76
2023-02-22T00:48:48.649Z,74.59
2023-02-22T00:51:02.899Z,74.65
2023-02-22T00:53:16.146Z,74.74
2023-02-22T00:55:31.266Z,74.59
2023-02-22T00:57:43.392Z,74.51
2023-02-22T00:59:55.587Z,74.43
2023-02-22T01:02:09.765Z,74.66
2023-02-22T01:04:22.238Z,74.91
2023-02-22T01:06:35.982Z,74.96
2023-02-22T01:08:48.992Z,74.76
2023-02-22T01:11:02.634Z,75.12
2023-02-22T01:13:15.237Z,74.95
2023-02-22T01:15:30.926Z,75.07
2023-02-22T01:17:43.998Z,75.08
2023-02-22T01:19:56.440Z,75.00
2023-02-22T01:22:09.051Z,75.40
2023-02-22T01:24:21.045Z,75.13
2023-02-22T01:26:33.062Z,75.35
2023-02-22T01:28:44.728Z,75.01
2023-02-22T01:30:56.993Z,75.09
2023-02-22T01:33:09.488Z,75.19
2023-02-22T01:35:28.043Z,75.10
2023-02-22T01:37:40.588Z,74.98
2023-02-22T01:39:52.378Z,75.32
2023-02-22T01:42:04.579Z,75.31
2023-02-22T01:44:35.650Z,75.00
2023-02-22T01:46:47.817Z,75.27
2023-02-22T01:49:06.775Z,75.42
2023-02-22T01:51:24.360Z,75.60
2023-02-22T01:54:03.130Z,75.39
2023-02-22T01:56:16.549Z,75.74
2023-02-22T01:58:33.769Z,75.61
2023-02-22T02:00:45.974Z,75.68
2023-02-22T02:03:01.932Z,75.64
2023-02-22T02:05:15.127Z,75.61
2023-02-22T02:07:29.866Z,75.90
2023-02-22T02:10:06.611Z,75.91
2023-02-22T02:12:20.057Z,76.24
2023-02-22T02:14:32.959Z,76.21
2023-02-22T02:16:49.247Z,76.01
2023-02-22T02:19:03.552Z,76.33
2023-02-22T02:21:34.949Z,76.14
2023-02-22T02:24:09.267Z,76.47
2023-02-22T02:26:59.562Z,76.77
2023-02-22T02:29:30.603Z,76.91
2023-02-22T02:32:27.589Z,77.01
2023-02-22T02:35:04.638Z,76.93
2023-02-22T02:37:43.253Z,77.59
2023-02-22T02:40:13.841Z,78.07
2023-02-22T02:42:34.892Z,78.12
2023-02-22T02:45:08.863Z,78.03
2023-02-22T02:47:29.723Z,78.19
2023-02-22T02:50:00.153Z,78.03
2023-02-22T02:52:13.477Z,78.06
2023-02-22T02:54:26.680Z,77.85
2023-02-22T02:56:38.889Z,77.64
2023-02-22T02:58:53.468Z,77.58
2023-02-22T03:01:08.398Z,77.50
2023-02-22T03:03:27.327Z,77.70
2023-02-22T03:05:59.629Z,77.48
2023-02-22T03:08:34.766Z,77.48
2023-02-22T03:11:15.552Z,77.45
2023-02-22T03:13:42.790Z,77.45
2023-02-22T03:16:03.005Z,77.42
2023-02-22T03:18:38.486Z,77.31
2023-02-22T03:21:00.349Z,77.37
2023-02-22T03:23:34.359Z,77.47
2023-02-22T03:25:52.085Z,77.52
2023-02-22T03:28:11.634Z,77.52
2023-02-22T03:30:29.054Z,77.54
2023-02-22T03:32:47.211Z,77.58
2023-02-22T03:35:07.845Z,77.76
2023-02-22T03:37:25.956Z,77.68
2023-02-22T03:39:39.076Z,77.87
2023-02-22T03:41:53.981Z,77.75
2023-02-22T03:44:12.289Z,77.95
2023-02-22T03:46:24.551Z,77.86
2023-02-22T03:48:49.072Z,77.95
2023-02-22T03:51:04.527Z,77.81
2023-02-22T03:53:19.237Z,78.17
2023-02-22T03:55:31.713Z,77.97
2023-02-22T03:57:51.204Z,77.82
2023-02-22T04:00:07.590Z,77.92
2023-02-22T04:02:24.693Z,77.86
2023-02-22T04:04:37.790Z,77.82
2023-02-22T04:06:50.219Z,77.77
2023-02-22T04:09:03.158Z,77.76
2023-02-22T04:11:15.839Z,77.65
2023-02-22T04:13:28.253Z,77.57
2023-02-22T04:15:40.897Z,77.82
2023-02-22T04:17:55.327Z,77.89
2023-02-22T04:20:08.436Z,77.64
2023-02-22T04:22:28.421Z,77.86
2023-02-22T04:24:41.342Z,77.52
2023-02-22T04:26:55.249Z,77.82
2023-02-22T04:29:08.511Z,78.03
2023-02-22T04:31:23.474Z,78.03
2023-02-22T04:33:36.829Z,77.93
2023-02-22T04:35:49.198Z,78.09
2023-02-22T04:38:01.494Z,78.11
2023-02-22T04:40:13.182Z,78.01
2023-02-22T04:42:25.388Z,78.30
2023-02-22T04:44:37.682Z,78.15
2023-02-22T04:46:50.260Z,78.45
2023-02-22T04:49:02.387Z,78.04
2023-02-22T04:51:16.986Z,78.13
2023-02-22T04:53:39.702Z,78.41
2023-02-22T04:55:52.842Z,78.25
2023-02-22T04:58:05.622Z,77.83
2023-02-22T05:00:21.636Z,78.49
2023-02-22T05:02:33.845Z,79.16
2023-02-22T05:04:46.146Z,79.15
2023-02-22T05:06:57.801Z,78.82
2023-02-22T05:09:09.490Z,79.34
2023-02-22T05:11:22.414Z,79.30
2023-02-22T05:13:34.404Z,79.55
2023-02-22T05:15:46.201Z,79.48
2023-02-22T05:17:58.343Z,80.05
2023-02-22T05:20:19.774Z,80.34
2023-02-22T05:22:31.592Z,80.26
2023-02-22T05:24:44.105Z,80.34
2023-02-22T05:26:55.789Z,79.84
2023-02-22T05:29:07.681Z,79.97
2023-02-22T05:31:19.779Z,79.52
2023-02-22T05:33:31.983Z,79.64
2023-02-22T05:35:44.024Z,79.51
2023-02-22T05:37:56.481Z,79.57
2023-02-22T05:40:09.225Z,79.35
2023-02-22T05:42:21.595Z,79.43
2023-02-22T05:44:33.385Z,79.65
2023-02-22T05:46:45.208Z,79.62
2023-02-22T05:48:56.968Z,79.68
2023-02-22T05:51:09.834Z,79.82
2023-02-22T05:53:23.924Z,79.81
2023-02-22T05:55:36.027Z,80.35
2023-02-22T05:57:48.122Z,81.10
2023-02-22T06:00:00.016Z,81.25
2023-02-22T06:02:12.052Z,80.79
2023-02-22T06:04:23.796Z,81.00
2023-02-22T06:06:35.894Z,81.32
2023-02-22T06:08:47.473Z,80.87
2023-02-22T06:10:59.372Z,81.61
2023-02-22T06:13:11.110Z,80.85
2023-02-22T06:15:25.088Z,81.06
2023-02-22T06:17:36.891Z,80.84
2023-02-22T06:19:48.679Z,81.05
2023-02-22T06:22:01.081Z,81.22
2023-02-22T06:24:13.893Z,80.48
2023-02-22T06:26:25.990Z,81.04
2023-02-22T06:28:38.192Z,80.96
2023-02-22T06:30:49.466Z,81.02
2023-02-22T06:33:01.608Z,80.96
2023-02-22T06:35:14.640Z,81.15
2023-02-22T06:37:26.545Z,81.27
2023-02-22T06:39:38.077Z,81.39
2023-02-22T06:41:51.486Z,81.48
2023-02-22T06:44:04.204Z,81.07
2023-02-22T06:46:15.989Z,81.32
2023-02-22T06:48:27.987Z,81.47
2023-02-22T06:50:40.088Z,82.01
2023-02-22T06:52:52.689Z,81.94
2023-02-22T06:55:04.809Z,81.94
2023-02-22T06:57:17.233Z,82.34
2023-02-22T06:59:29.291Z,82.34
2023-02-22T07:01:42.818Z,81.93
2023-02-22T07:03:54.617Z,82.28
2023-02-22T07:06:07.356Z,82.26
2023-02-22T07:08:18.778Z,82.27
2023-02-22T07:10:31.745Z,82.25
2023-02-22T07:12:43.571Z,82.13
2023-02-22T07:14:56.544Z,82.40
2023-02-22T07:17:08.187Z,82.33
2023-02-22T07:19:20.933Z,82.24
2023-02-22T07:21:32.725Z,82.21
2023-02-22T07:23:54.243Z,82.17
2023-02-22T07:26:06.033Z,82.21
2023-02-22T07:28:19.433Z,82.20
2023-02-22T07:30:34.299Z,82.23
2023-02-22T07:32:47.077Z,82.34
2023-02-22T07:34:59.347Z,82.33
2023-02-22T07:37:11.457Z,81.97
2023-02-22T07:39:23.687Z,82.10
2023-02-22T07:41:35.626Z,81.92
2023-02-22T07:43:47.405Z,81.90
2023-02-22T07:46:02.966Z,81.64
2023-02-22T07:48:17.325Z,81.46
2023-02-22T07:50:31.485Z,81.62
2023-02-22T07:52:47.730Z,81.41
2023-02-22T07:55:00.700Z,81.30
2023-02-22T07:57:13.996Z,80.99
2023-02-22T07:59:25.692Z,81.03
2023-02-22T08:01:37.596Z,80.73
2023-02-22T08:03:49.461Z,80.48
2023-02-22T08:06:03.164Z,79.81
2023-02-22T08:08:18.823Z,79.38
2023-02-22T08:10:31.891Z,79.03
2023-02-22T08:12:43.828Z,78.35
2023-02-22T08:14:55.622Z,77.30
2023-02-22T08:17:08.824Z,77.40
2023-02-22T08:19:23.089Z,75.92
2023-02-22T08:21:35.082Z,75.54
2023-02-22T08:23:51.591Z,74.88
2023-02-22T08:26:09.200Z,74.58
2023-02-22T08:28:23.615Z,74.28
2023-02-22T08:30:39.038Z,74.09
2023-02-22T08:32:52.243Z,74.14
2023-02-22T08:35:05.278Z,73.87
2023-02-22T08:37:18.254Z,74.41
2023-02-22T08:39:29.883Z,73.97
2023-02-22T08:41:41.885Z,73.81
2023-02-22T08:43:53.769Z,73.87
2023-02-22T08:46:05.481Z,73.20
2023-02-22T08:48:18.585Z,73.61
2023-02-22T08:50:33.837Z,73.19
2023-02-22T08:52:53.384Z,73.25
2023-02-22T08:55:08.387Z,73.16
2023-02-22T08:57:21.733Z,73.08
2023-02-22T08:59:34.008Z,72.40
2023-02-22T09:01:45.752Z,72.83
2023-02-22T09:03:58.232Z,73.07
2023-02-22T09:06:14.037Z,72.81
2023-02-22T09:08:26.388Z,72.78
2023-02-22T09:10:38.801Z,73.11
2023-02-22T09:12:52.117Z,73.27
2023-02-22T09:15:04.216Z,73.15
2023-02-22T09:17:16.006Z,72.79
2023-02-22T09:19:28.821Z,72.73
2023-02-22T09:21:41.542Z,73.33
2023-02-22T09:23:54.843Z,72.90
2023-02-22T09:26:10.751Z,73.29
2023-02-22T09:28:24.709Z,73.61
2023-02-22T09:30:37.564Z,73.33
2023-02-22T09:32:51.523Z,73.61
2023-02-22T09:35:03.739Z,73.81
2023-02-22T09:37:15.560Z,73.72
2023-02-22T09:39:28.178Z,73.84
2023-02-22T09:41:57.033Z,73.39
2023-02-22T09:44:28.277Z,73.13
2023-02-22T09:46:45.961Z,73.54
2023-02-22T09:49:05.431Z,73.68
2023-02-22T09:51:20.745Z,74.14
2023-02-22T09:53:42.039Z,73.65
2023-02-22T09:55:57.860Z,73.16
2023-02-22T09:58:22.129Z,73.74
2023-02-22T10:00:38.831Z,72.64
2023-02-22T10:03:31.174Z,72.88
2023-02-22T10:05:53.744Z,72.69
2023-02-22T10:08:12.834Z,72.70
2023-02-22T10:10:33.585Z,72.90
2023-02-22T10:13:09.943Z,72.93
2023-02-22T10:15:42.841Z,72.31
2023-02-22T10:18:03.536Z,72.22
2023-02-22T10:20:37.435Z,72.34
2023-02-22T10:23:03.773Z,71.54
2023-02-22T10:25:20.634Z,70.77
2023-02-22T10:27:39.497Z,70.75
2023-02-22T10:30:26.008Z,70.08
2023-02-22T10:32:45.712Z,69.62
2023-02-22T10:35:00.952Z,69.25
2023-02-22T10:37:24.406Z,68.89
2023-02-22T10:39:39.918Z,67.90
2023-02-22T10:42:05.793Z,68.20
2023-02-22T10:44:17.747Z,66.77
2023-02-22T10:46:32.565Z,65.54
2023-02-22T10:48:48.228Z,65.79
2023-02-22T10:51:02.255Z,64.72
2023-02-22T10:53:17.895Z,64.58
2023-02-22T10:55:29.885Z,65.42
2023-02-22T10:57:47.061Z,64.71
2023-02-22T11:00:14.102Z,64.29
2023-02-22T11:02:35.249Z,64.62
2023-02-22T11:04:55.744Z,64.55
2023-02-22T11:07:14.521Z,64.63
2023-02-22T11:09:29.071Z,64.90
2023-02-22T11:11:44.438Z,64.76
2023-02-22T11:13:57.365Z,63.70
2023-02-22T11:16:31.662Z,63.07
2023-02-22T11:18:43.603Z,63.35
2023-02-22T11:21:05.552Z,62.95
2023-02-22T11:23:23.566Z,62.66
2023-02-22T11:25:39.220Z,63.22
2023-02-22T11:27:52.648Z,63.57
2023-02-22T11:30:22.138Z,64.12
2023-02-22T11:32:36.598Z,64.24
2023-02-22T11:35:03.461Z,64.12
2023-02-22T11:37:36.716Z,63.60
2023-02-22T11:39:51.293Z,64.32
2023-02-22T11:42:27.473Z,63.82
2023-02-22T11:44:44.054Z,64.48
2023-02-22T11:47:01.573Z,64.50
2023-02-22T11:49:17.461Z,64.68
2023-02-22T11:51:32.227Z,64.77
2023-02-22T11:54:13.916Z,64.96
2023-02-22T11:56:38.119Z,64.58
2023-02-22T11:59:08.217Z,64.00
2023-02-22T12:01:55.414Z,64.05
2023-02-22T12:04:40.463Z,64.14
2023-02-22T12:07:15.573Z,64.67
2023-02-22T12:09:40.851Z,64.38
2023-02-22T12:12:17.684Z,63.73
2023-02-22T12:14:49.530Z,63.75
2023-02-22T12:17:07.895Z,63.90
2023-02-22T12:19:39.982Z,64.36
2023-02-22T12:22:03.288Z,63.66
2023-02-22T12:24:27.848Z,63.41
2023-02-22T12:26:42.280Z,63.53
2023-02-22T12:29:09.408Z,63.31
2023-02-22T12:31:36.102Z,62.68
2023-02-22T12:34:27.501Z,63.02
2023-02-22T12:36:51.961Z,63.45
2023-02-22T12:39:21.026Z,63.74
2023-02-22T12:41:55.450Z,63.49
2023-02-22T12:44:23.538Z,63.80
2023-02-22T12:46:41.749Z,63.71
2023-02-22T12:49:31.913Z,63.55
2023-02-22T12:51:52.543Z,63.19
2023-02-22T12:54:16.560Z,63.56
2023-02-22T12:56:34.590Z,63.26
2023-02-22T12:58:54.478Z,63.64
2023-02-22T13:01:18.147Z,63.27
2023-02-22T13:03:42.552Z,63.37
2023-02-22T13:06:26.582Z,62.84
2023-02-22T13:08:56.792Z,63.09
2023-02-22T13:11:38.684Z,63.36
2023-02-22T13:14:14.743Z,62.29
2023-02-22T13:16:56.641Z,62.58
2023-02-22T13:19:24.304Z,62.99
2023-02-22T13:21:55.754Z,62.78
2023-02-22T13:24:22.779Z,62.71
2023-02-22T13:26:52.221Z,62.16
2023-02-22T13:29:16.894Z,62.73
2023-02-22T13:31:57.939Z,62.56
2023-02-22T13:34:31.984Z,62.70
2023-02-22T13:37:17.977Z,62.81
2023-02-22T13:39:35.907Z,62.33
2023-02-22T13:41:57.320Z,62.39
2023-02-22T13:44:13.718Z,62.21
2023-02-22T13:46:44.615Z,61.95
2023-02-22T13:49:19.082Z,62.09
2023-02-22T13:51:53.496Z,62.59
2023-02-22T13:54:17.989Z,62.17
2023-02-22T13:56:30.561Z,62.59
2023-02-22T13:59:21.499Z,62.54
2023-02-22T14:01:42.685Z,62.44
2023-02-22T14:04:23.702Z,62.18
2023-02-22T14:06:39.106Z,62.37
2023-02-22T14:08:50.850Z,62.84
2023-02-22T14:11:31.823Z,62.63
2023-02-22T14:14:09.069Z,62.69
2023-02-22T14:16:32.435Z,62.58
2023-02-22T14:19:09.545Z,62.61
2023-02-22T14:21:33.224Z,62.52
2023-02-22T14:23:56.647Z,63.21
2023-02-22T14:26:34.191Z,61.84
2023-02-22T14:29:06.603Z,61.76
2023-02-22T14:31:35.349Z,61.88
2023-02-22T14:33:59.622Z,62.09
2023-02-22T14:36:13.596Z,62.52
2023-02-22T14:38:26.274Z,62.29
2023-02-22T14:40:42.900Z,61.83
2023-02-22T14:43:15.354Z,61.75
2023-02-22T14:45:34.389Z,61.56
2023-02-22T14:48:17.128Z,62.31
2023-02-22T14:50:45.421Z,62.41
2023-02-22T14:53:12.245Z,62.45
2023-02-22T14:55:26.417Z,62.21
2023-02-22T14:57:53.763Z,62.64
2023-02-22T15:00:33.191Z,62.36
2023-02-22T15:02:55.348Z,62.80
2023-02-22T15:05:08.238Z,62.69
2023-02-22T15:07:28.761Z,63.05
2023-02-22T15:09:41.064Z,63.36
2023-02-22T15:12:03.884Z,63.35
2023-02-22T15:14:26.291Z,63.74
2023-02-22T15:16:44.667Z,63.04
2023-02-22T15:19:03.960Z,62.92
2023-02-22T15:21:19.525Z,63.52
2023-02-22T15:23:43.823Z,64.08
2023-02-22T15:25:55.805Z,63.72
2023-02-22T15:28:09.751Z,64.69
2023-02-22T15:30:28.170Z,64.95
2023-02-22T15:32:56.937Z,64.57
2023-02-22T15:35:20.327Z,64.77
2023-02-22T15:37:33.497Z,64.33
2023-02-22T15:39:53.017Z,63.03
2023-02-22T15:42:08.105Z,62.85
2023-02-22T15:44:24.411Z,62.91
2023-02-22T15:46:36.686Z,63.05
2023-02-22T15:49:10.183Z,63.22
2023-02-22T15:51:22.301Z,63.91
2023-02-22T15:53:45.370Z,63.95
2023-02-22T15:56:00.299Z,64.11
2023-02-22T15:58:23.874Z,64.20
2023-02-22T16:00:38.668Z,64.66
2023-02-22T16:02:51.854Z,64.74
2023-02-22T16:05:10.234Z,64.82
2023-02-22T16:07:24.540Z,65.22
2023-02-22T16:09:37.972Z,65.11
2023-02-22T16:11:50.781Z,65.24
2023-02-22T16:14:06.118Z,65.59
2023-02-22T16:16:20.971Z,65.54
2023-02-22T16:18:36.403Z,65.50
2023-02-22T16:21:02.110Z,65.91
2023-02-22T16:23:28.646Z,65.63
2023-02-22T16:25:40.535Z,66.07
2023-02-22T16:28:00.316Z,65.82
2023-02-22T16:30:24.492Z,66.05
2023-02-22T16:32:37.970Z,66.42
2023-02-22T16:34:50.658Z,66.43
2023-02-22T16:37:02.365Z,66.82
2023-02-22T16:39:27.492Z,66.77
2023-02-22T16:41:40.040Z,67.28
2023-02-22T16:43:54.420Z,67.63
2023-02-22T16:46:07.286Z,67.72
2023-02-22T16:48:22.675Z,67.56
2023-02-22T16:50:35.186Z,67.96
2023-02-22T16:52:47.842Z,67.61
2023-02-22T16:55:02.199Z,67.61
2023-02-22T16:57:24.982Z,68.16
2023-02-22T16:59:39.333Z,67.97
2023-02-22T17:01:51.327Z,67.88
2023-02-22T17:04:09.521Z,68.11
2023-02-22T17:06:22.689Z,68.03
2023-02-22T17:08:34.374Z,68.28
2023-02-22T17:10:51.733Z,68.25
2023-02-22T17:13:21.303Z,68.63
2023-02-22T17:15:35.683Z,68.59
2023-02-22T17:17:48.978Z,68.37
2023-02-22T17:20:01.804Z,68.50
2023-02-22T17:22:20.610Z,68.84
2023-02-22T17:24:34.291Z,68.87
2023-02-22T17:26:46.684Z,68.76
2023-02-22T17:28:58.629Z,68.91
2023-02-22T17:31:20.762Z,68.86
2023-02-22T17:33:36.753Z,69.06
2023-02-22T17:35:48.903Z,69.19
2023-02-22T17:38:01.815Z,69.12
2023-02-22T17:40:14.926Z,69.19
2023-02-22T17:42:27.150Z,69.19
2023-02-22T17:44:39.235Z,69.21
2023-02-22T17:46:52.991Z,69.29
2023-02-22T17:49:04.569Z,69.16
2023-02-22T17:51:16.655Z,69.32
2023-02-22T17:53:28.547Z,69.46
2023-02-22T17:55:42.216Z,69.42
2023-02-22T17:57:59.536Z,69.39
2023-02-22T18:00:23.488Z,69.44
2023-02-22T18:02:35.677Z,69.34
2023-02-22T18:04:47.665Z,69.56
2023-02-22T18:07:00.376Z,69.38
2023-02-22T18:09:14.756Z,69.54
2023-02-22T18:11:28.863Z,69.58
2023-02-22T18:13:41.708Z,69.73
2023-02-22T18:16:00.042Z,69.54
2023-02-22T18:18:13.062Z,69.61
2023-02-22T18:20:31.325Z,69.66
2023-02-22T18:22:44.067Z,70.13
2023-02-22T18:25:00.159Z,70.15
2023-02-22T18:27:14.955Z,70.59
2023-02-22T18:29:29.079Z,70.86
2023-02-22T18:31:40.747Z,71.11
2023-02-22T18:33:53.006Z,71.22
2023-02-22T18:36:05.804Z,71.54
2023-02-22T18:38:26.090Z,71.55
2023-02-22T18:40:38.387Z,71.77
2023-02-22T18:42:50.387Z,71.71
2023-02-22T18:45:04.836Z,72.39
2023-02-22T18:47:17.411Z,72.35
2023-02-22T18:49:29.336Z,72.52
2023-02-22T18:51:43.748Z,72.53
2023-02-22T18:54:00.795Z,72.96
2023-02-22T18:56:16.121Z,72.66
2023-02-22T18:58:28.069Z,73.24
2023-02-22T19:00:40.064Z,73.44
2023-02-22T19:02:53.916Z,73.05
2023-02-22T19:05:06.611Z,73.20
2023-02-22T19:07:20.245Z,73.33
2023-02-22T19:09:32.867Z,73.41
2023-02-22T19:11:46.803Z,73.26
2023-02-22T19:13:58.800Z,73.52
2023-02-22T19:16:10.525Z,73.46
2023-02-22T19:18:23.775Z,73.35
2023-02-22T19:20:36.086Z,73.75
2023-02-22T19:22:49.442Z,73.63
2023-02-22T19:25:01.644Z,73.75
2023-02-22T19:27:16.972Z,73.91
2023-02-22T19:29:31.306Z,73.79
2023-02-22T19:31:46.025Z,74.02
2023-02-22T19:34:09.172Z,74.17
2023-02-22T19:36:25.771Z,74.33
2023-02-22T19:38:38.632Z,74.28
2023-02-22T19:40:51.091Z,74.50
2023-02-22T19:43:03.186Z,74.30
2023-02-22T19:45:15.067Z,74.80
2023-02-22T19:47:26.975Z,74.64
2023-02-22T19:49:41.255Z,74.50
2023-02-22T19:51:53.316Z,74.85
2023-02-22T19:54:07.368Z,74.81
2023-02-22T19:56:27.037Z,75.26
2023-02-22T19:58:40.870Z,74.43
2023-02-22T20:00:52.638Z,74.82
2023-02-22T20:03:09.492Z,74.94
2023-02-22T20:05:21.056Z,74.76
2023-02-22T20:07:33.665Z,75.66
2023-02-22T20:09:45.657Z,75.36
2023-02-22T20:11:57.377Z,75.34
2023-02-22T20:14:17.619Z,75.37
2023-02-22T20:16:30.237Z,75.37
2023-02-22T20:18:47.773Z,74.97
2023-02-22T20:21:09.705Z,75.50
2023-02-22T20:23:24.263Z,75.67
2023-02-22T20:25:36.305Z,75.85
2023-02-22T20:27:47.932Z,75.87
2023-02-22T20:29:59.927Z,76.29
2023-02-22T20:32:15.149Z,76.24
2023-02-22T20:34:31.435Z,76.22
2023-02-22T20:36:43.591Z,75.69
2023-02-22T20:38:59.175Z,76.26
2023-02-22T20:41:15.796Z,76.65
2023-02-22T20:43:28.033Z,76.37
2023-02-22T20:45:41.296Z,76.37
2023-02-22T20:47:52.985Z,76.16
2023-02-22T20:50:05.849Z,76.70
2023-02-22T20:52:17.590Z,76.21
2023-02-22T20:54:29.245Z,76.31
2023-02-22T20:56:43.729Z,76.56
2023-02-22T20:59:01.499Z,77.02
2023-02-22T21:01:17.178Z,76.54
2023-02-22T21:03:29.296Z,76.15
2023-02-22T21:05:45.873Z,76.29
2023-02-22T21:07:58.589Z,76.52
2023-02-22T21:10:10.426Z,76.22
2023-02-22T21:12:22.342Z,76.49
2023-02-22T21:14:34.897Z,76.02
2023-02-22T21:16:49.032Z,76.39
2023-02-22T21:19:04.165Z,76.25
2023-02-22T21:21:16.719Z,76.50
2023-02-22T21:23:30.278Z,75.93
2023-02-22T21:25:53.200Z,76.44
2023-02-22T21:28:05.555Z,76.62
2023-02-22T21:30:17.957Z,76.31
2023-02-22T21:32:29.635Z,76.37
2023-02-22T21:34:42.258Z,75.89
2023-02-22T21:36:54.752Z,76.39
2023-02-22T21:39:18.436Z,75.63
2023-02-22T21:41:31.657Z,75.59
2023-02-22T21:43:48.909Z,76.22
2023-02-22T21:46:04.848Z,76.45
2023-02-22T21:48:17.497Z,75.53
2023-02-22T21:50:31.246Z,76.15
2023-02-22T21:52:48.756Z,75.95
2023-02-22T21:55:01.478Z,76.12
2023-02-22T21:57:15.394Z,76.30
2023-02-22T21:59:27.805Z,75.79
2023-02-22T22:01:47.558Z,76.31
2023-02-22T22:04:01.895Z,76.03
2023-02-22T22:06:14.555Z,75.83
2023-02-22T22:08:28.156Z,76.47
2023-02-22T22:10:39.638Z,76.11
2023-02-22T22:12:52.960Z,76.03
2023-02-22T22:15:05.373Z,76.30
2023-02-22T22:17:17.356Z,76.44
2023-02-22T22:19:30.705Z,75.72
2023-02-22T22:21:42.986Z,76.00
2023-02-22T22:23:56.299Z,76.32
2023-02-22T22:26:13.127Z,76.23
2023-02-22T22:28:27.159Z,76.21
2023-02-22T22:30:39.988Z,76.25
2023-02-22T22:32:51.762Z,76.04
2023-02-22T22:35:05.320Z,76.13
2023-02-22T22:37:17.594Z,75.99
2023-02-22T22:39:29.383Z,76.06
2023-02-22T22:41:45.010Z,76.15
2023-02-22T22:43:56.554Z,75.93
2023-02-22T22:46:08.952Z,76.05
2023-02-22T22:48:22.891Z,75.93
2023-02-22T22:50:34.681Z,75.89
2023-02-22T22:52:46.778Z,76.10
2023-02-22T22:55:00.822Z,76.02
2023-02-22T22:57:13.839Z,75.57
2023-02-22T22:59:25.323Z,75.51
2023-02-22T23:01:40.666Z,75.92
2023-02-22T23:04:04.568Z,75.85
2023-02-22T23:06:16.672Z,75.43
2023-02-22T23:08:29.477Z,75.74
2023-02-22T23:10:41.890Z,75.73
2023-02-22T23:12:55.990Z,75.45
2023-02-22T23:15:08.947Z,75.21
2023-02-22T23:17:31.543Z,75.67
2023-02-22T23:19:45.100Z,75.37
2023-02-22T23:21:59.215Z,75.30
2023-02-22T23:24:15.289Z,75.53
2023-02-22T23:26:27.353Z,75.28
2023-02-22T23:28:41.042Z,75.44
2023-02-22T23:30:53.043Z,75.53
2023-02-22T23:33:05.293Z,74.85
2023-02-22T23:35:19.234Z,75.21
2023-02-22T23:37:35.555Z,75.10
2023-02-22T23:39:48.862Z,75.28
2023-02-22T23:42:00.549Z,75.24
2023-02-22T23:44:17.565Z,75.07
2023-02-22T23:46:33.014Z,75.26
2023-02-22T23:48:51.133Z,75.19
2023-02-22T23:51:10.618Z,75.22
2023-02-22T23:53:22.732Z,75.38
2023-02-22T23:55:39.275Z,75.02
2023-02-22T23:57:51.121Z,75.35
